createdAt,value
2022-11-12T00:04:46.149Z,9.82
2022-11-12T00:10:26.042Z,9.88
2022-11-12T00:16:05.874Z,10.23
2022-11-12T00:21:44.909Z,10.00
2022-11-12T00:27:24.421Z,11.18
2022-11-12T00:33:05.103Z,9.68
2022-11-12T00:38:44.255Z,10.38
2022-11-12T00:44:23.456Z,11.15
2022-11-12T00:50:02.927Z,10.95
2022-11-12T00:55:42.000Z,10.63
2022-11-12T01:01:21.760Z,10.07
2022-11-12T01:07:00.944Z,10.25
2022-11-12T01:12:40.643Z,10.73
2022-11-12T01:18:19.566Z,11.32
2022-11-12T01:24:00.888Z,9.95
2022-11-12T01:29:40.951Z,11.43
2022-11-12T01:35:20.308Z,10.40
2022-11-12T01:40:59.567Z,10.60
2022-11-12T01:46:49.923Z,10.80
2022-11-12T01:52:35.201Z,11.15
2022-11-12T01:58:18.367Z,9.18
2022-11-12T02:03:57.396Z,10.85
2022-11-12T02:09:36.868Z,9.52
2022-11-12T02:15:16.069Z,9.15
2022-11-12T02:20:58.039Z,9.43
2022-11-12T02:26:40.918Z,9.05
2022-11-12T02:32:20.197Z,8.77
2022-11-12T02:38:00.049Z,9.38
2022-11-12T02:43:40.728Z,9.05
2022-11-12T02:49:19.848Z,9.80
2022-11-12T02:54:59.189Z,8.13
2022-11-12T03:00:38.226Z,9.27
2022-11-12T03:06:17.835Z,11.48
2022-11-12T03:11:57.275Z,8.80
2022-11-12T03:17:36.340Z,9.70
2022-11-12T03:23:15.514Z,10.73
2022-11-12T03:28:55.045Z,10.30
2022-11-12T03:34:34.339Z,10.48
2022-11-12T03:40:13.458Z,9.27
2022-11-12T03:45:52.506Z,9.10
2022-11-12T03:51:31.769Z,9.32
2022-11-12T03:57:10.705Z,8.57
2022-11-12T04:02:50.119Z,9.15
2022-11-12T04:08:38.427Z,10.93
2022-11-12T04:14:17.737Z,8.73
2022-11-12T04:20:15.601Z,9.68
2022-11-12T04:26:13.613Z,10.05
2022-11-12T04:31:52.881Z,10.05
2022-11-12T04:37:44.451Z,10.45
2022-11-12T04:43:42.296Z,10.40
2022-11-12T04:49:21.698Z,10.00
2022-11-12T04:55:01.404Z,9.85
2022-11-12T05:00:40.715Z,9.23
2022-11-12T05:06:38.343Z,9.32
2022-11-12T05:12:17.862Z,10.02
2022-11-12T05:17:57.139Z,8.10
2022-11-12T05:23:35.976Z,8.85
2022-11-12T05:29:15.208Z,8.85
2022-11-12T05:34:54.569Z,8.48
2022-11-12T05:40:33.761Z,9.43
2022-11-12T05:46:13.116Z,7.72
2022-11-12T05:51:52.701Z,7.85
2022-11-12T05:57:32.073Z,7.90
2022-11-12T06:03:12.358Z,8.18
2022-11-12T06:08:51.754Z,7.55
2022-11-12T06:14:31.158Z,8.57
2022-11-12T06:20:11.216Z,7.22
2022-11-12T06:25:50.514Z,8.45
2022-11-12T06:31:29.752Z,9.27
2022-11-12T06:37:09.170Z,11.52
2022-11-12T06:42:48.393Z,11.85
2022-11-12T06:48:28.765Z,10.93
2022-11-12T06:54:08.311Z,12.27
2022-11-12T06:59:47.418Z,10.40
2022-11-12T07:05:26.512Z,10.25
2022-11-12T07:11:06.367Z,10.88
2022-11-12T07:16:45.754Z,8.32
2022-11-12T07:22:24.949Z,8.85
2022-11-12T07:28:04.701Z,9.40
2022-11-12T07:33:44.424Z,8.15
2022-11-12T07:39:23.896Z,9.50
2022-11-12T07:45:03.307Z,9.88
2022-11-12T07:50:42.571Z,10.32
2022-11-12T07:56:24.728Z,10.55
2022-11-12T08:02:04.156Z,11.23
2022-11-12T08:07:43.175Z,9.07
2022-11-12T08:13:22.228Z,9.60
2022-11-12T08:19:01.510Z,9.80
2022-11-12T08:24:40.649Z,9.75
2022-11-12T08:30:19.518Z,9.85
2022-11-12T08:36:02.057Z,9.35
2022-11-12T08:41:41.077Z,9.57
2022-11-12T08:47:20.046Z,9.35
2022-11-12T08:53:04.438Z,9.02
2022-11-12T08:58:43.745Z,8.33
2022-11-12T09:04:23.157Z,9.50
2022-11-12T09:10:02.755Z,8.27
2022-11-12T09:15:43.130Z,9.05
2022-11-12T09:21:24.673Z,9.98
2022-11-12T09:27:03.909Z,8.77
2022-11-12T09:32:43.424Z,8.63
2022-11-12T09:38:22.912Z,9.05
2022-11-12T09:44:04.930Z,8.02
2022-11-12T09:50:03.548Z,7.60
2022-11-12T09:55:46.648Z,7.85
2022-11-12T10:01:50.103Z,8.13
2022-11-12T10:07:38.323Z,7.32
2022-11-12T10:13:34.913Z,7.45
2022-11-12T10:19:37.085Z,9.00
2022-11-12T10:25:19.438Z,8.93
2022-11-12T10:31:06.122Z,11.90
2022-11-12T10:36:56.692Z,12.98
2022-11-12T10:42:59.312Z,11.52
2022-11-12T10:48:38.448Z,12.30
2022-11-12T10:54:30.078Z,15.43
2022-11-12T11:00:12.215Z,16.05
2022-11-12T11:06:00.417Z,16.10
2022-11-12T11:12:00.446Z,15.88
2022-11-12T11:17:39.757Z,14.63
2022-11-12T11:23:28.923Z,14.52
2022-11-12T11:29:30.641Z,15.15
2022-11-12T11:35:34.932Z,15.88
2022-11-12T11:41:30.847Z,16.02
2022-11-12T11:53:26.710Z,16.48
2022-11-12T11:59:30.694Z,15.10
2022-11-12T12:05:27.755Z,16.48
2022-11-12T12:11:32.453Z,15.20
2022-11-12T12:17:31.848Z,13.82
2022-11-12T12:23:37.505Z,12.70
2022-11-12T12:29:34.575Z,13.10
2022-11-12T12:35:33.001Z,12.85
2022-11-12T12:41:30.670Z,14.02
2022-11-12T12:47:13.040Z,10.75
2022-11-12T12:53:16.546Z,12.70
2022-11-12T12:58:55.751Z,13.50
2022-11-12T13:04:55.192Z,14.77
2022-11-12T13:10:44.445Z,12.77
2022-11-12T13:16:52.135Z,11.90
2022-11-12T13:22:40.248Z,12.32
2022-11-12T13:28:19.745Z,12.13
2022-11-12T13:34:13.214Z,14.63
2022-11-12T13:39:52.468Z,13.60
2022-11-12T13:45:35.531Z,14.55
2022-11-12T13:51:27.275Z,14.45
2022-11-12T13:57:24.018Z,14.10
2022-11-12T14:03:06.301Z,12.93
2022-11-12T14:09:25.863Z,13.32
2022-11-12T14:15:23.663Z,11.93
2022-11-12T14:21:11.054Z,10.82
2022-11-12T14:26:50.801Z,12.27
2022-11-12T14:32:37.139Z,13.15
2022-11-12T14:38:48.613Z,13.93
2022-11-12T14:44:34.580Z,13.80
2022-11-12T14:50:20.847Z,14.63
2022-11-12T14:56:03.590Z,14.52
2022-11-12T15:08:08.088Z,15.30
2022-11-12T15:13:49.406Z,11.77
2022-11-12T15:19:29.644Z,12.45
2022-11-12T15:25:18.096Z,15.38
2022-11-12T15:31:06.040Z,14.73
2022-11-12T15:36:45.289Z,15.57
2022-11-12T15:42:33.820Z,15.88
2022-11-12T15:48:13.067Z,14.80
2022-11-12T15:53:52.744Z,13.45
2022-11-12T15:59:32.099Z,16.27
2022-11-12T16:05:18.533Z,19.25
2022-11-12T16:10:57.828Z,17.50
2022-11-12T16:16:39.594Z,16.10
2022-11-12T16:22:18.935Z,17.63
2022-11-12T16:28:00.892Z,13.48
2022-11-12T16:33:39.944Z,13.02
2022-11-12T16:39:18.892Z,14.95
2022-11-12T16:44:58.408Z,15.25
2022-11-12T16:50:37.815Z,11.10
2022-11-12T16:56:21.936Z,12.38
2022-11-12T17:02:01.150Z,12.68
2022-11-12T17:07:40.353Z,11.23
2022-11-12T17:13:19.617Z,12.20
2022-11-12T17:19:01.576Z,12.63
2022-11-12T17:24:40.682Z,12.85
2022-11-12T17:30:21.162Z,14.88
2022-11-12T17:36:05.009Z,17.38
2022-11-12T17:41:44.485Z,16.55
2022-11-12T17:47:23.928Z,15.70
2022-11-12T17:53:03.418Z,17.17
2022-11-12T17:58:45.303Z,19.90
2022-11-12T18:04:26.552Z,18.10
2022-11-12T18:10:08.083Z,19.75
2022-11-12T18:15:47.689Z,19.70
2022-11-12T18:21:27.561Z,18.38
2022-11-12T18:27:07.005Z,19.35
2022-11-12T18:32:46.586Z,19.40
2022-11-12T18:38:25.893Z,21.20
2022-11-12T18:44:05.257Z,20.35
2022-11-12T18:49:44.732Z,20.05
2022-11-12T18:55:24.069Z,21.70
2022-11-12T19:01:10.820Z,20.02
2022-11-12T19:06:51.881Z,20.70
2022-11-12T19:12:31.241Z,18.63
2022-11-12T19:18:10.701Z,19.58
2022-11-12T19:23:53.996Z,20.85
2022-11-12T19:29:33.855Z,20.60
2022-11-12T19:35:13.272Z,22.05
2022-11-12T19:40:52.465Z,19.90
2022-11-12T19:46:32.448Z,23.45
2022-11-12T19:52:12.126Z,23.70
2022-11-12T19:57:52.010Z,21.77
2022-11-12T20:03:31.250Z,23.67
2022-11-12T20:09:10.352Z,27.52
2022-11-12T20:14:49.673Z,21.95
2022-11-12T20:20:29.016Z,22.05
2022-11-12T20:26:12.167Z,22.55
2022-11-12T20:31:51.361Z,22.48
2022-11-12T20:37:30.691Z,19.85
2022-11-12T20:43:09.928Z,23.90
2022-11-12T20:48:49.313Z,22.42
2022-11-12T20:54:28.684Z,20.10
2022-11-12T21:00:13.522Z,20.35
2022-11-12T21:06:01.768Z,20.08
2022-11-12T21:11:41.090Z,20.98
2022-11-12T21:17:20.601Z,20.95
2022-11-12T21:22:59.711Z,24.15
2022-11-12T21:28:41.556Z,22.52
2022-11-12T21:34:20.703Z,21.10
2022-11-12T21:39:59.792Z,21.98
2022-11-12T21:45:44.839Z,21.40
2022-11-12T21:51:26.879Z,21.25
2022-11-12T21:57:06.571Z,20.98
2022-11-12T22:02:45.822Z,28.35
2022-11-12T22:08:25.608Z,20.83
2022-11-12T22:14:05.022Z,18.73
2022-11-12T22:19:44.053Z,17.83
2022-11-12T22:25:23.277Z,18.05
2022-11-12T22:31:05.157Z,19.58
2022-11-12T22:36:44.807Z,19.52
2022-11-12T22:42:23.851Z,19.90
2022-11-12T22:48:03.684Z,18.92
2022-11-12T22:53:43.450Z,18.95
2022-11-12T22:59:23.179Z,19.17
2022-11-12T23:05:03.435Z,20.15
2022-11-12T23:10:45.790Z,21.25
2022-11-12T23:16:30.010Z,20.08
2022-11-12T23:22:09.296Z,20.67
2022-11-12T23:27:48.374Z,21.63
2022-11-12T23:33:27.515Z,21.27
2022-11-12T23:39:06.844Z,18.80
2022-11-12T23:44:46.457Z,19.73
2022-11-12T23:50:25.761Z,19.60
2022-11-12T23:56:06.957Z,19.40
